Time;durP1;ratioP1;P1;durP2;ratioP2;P2;SDS_P1;SDS_P2;PMS_P1;PMS_P2;Temp;Humidity;BMP_temperature;BMP_pressure;BME280_temperature;BME280_humidity;BME280_pressure;Samples;Min_cycle;Max_cycle;Signal;HPM_P1;HPM_P2
2024/03/06 00:01:47;;;;;;;;;9.00;8.00;;;;;;;;4926832;28;45384;-65
2024/03/06 00:04:12;;;;;;;;;8.25;6.00;;;;;;;;4927570;28;45305;-65
2024/03/06 00:06:37;;;;;;;;;4.67;4.33;;;;;;;;4917965;28;45305;-65
2024/03/06 00:09:03;;;;;;;;;4.00;4.00;;;;;;;;4928582;28;45300;-65
2024/03/06 00:11:28;;;;;;;;;7.75;6.50;;;;;;;;4929214;28;46141;-65
2024/03/06 00:13:53;;;;;;;;;7.50;5.00;;;;;;;;4932007;28;45588;-65
2024/03/06 00:16:18;;;;;;;;;6.33;5.00;;;;;;;;4932555;28;45450;-65
2024/03/06 00:18:43;;;;;;;;;4.00;4.00;;;;;;;;4922213;28;45475;-65
2024/03/06 00:21:09;;;;;;;;;6.33;4.00;;;;;;;;4924450;28;45848;-65
2024/03/06 00:23:35;;;;;;;;;4.00;4.00;;;;;;;;4928482;28;45642;-65
2024/03/06 00:26:02;;;;;;;;;4.25;4.25;;;;;;;;4927811;28;46617;-65
2024/03/06 00:28:27;;;;;;;;;4.00;4.00;;;;;;;;4923729;28;45628;-65
2024/03/06 00:30:52;;;;;;;;;2.67;1.00;;;;;;;;4933233;28;46273;-65
2024/03/06 00:33:17;;;;;;;;;4.33;4.33;;;;;;;;4926907;28;45493;-65
2024/03/06 00:35:42;;;;;;;;;3.67;3.33;;;;;;;;4926138;28;45390;-65
2024/03/06 00:38:08;;;;;;;;;4.00;4.00;;;;;;;;4916718;28;45595;-65
2024/03/06 00:40:33;;;;;;;;;4.33;4.00;;;;;;;;4925415;28;45705;-65
2024/03/06 00:42:58;;;;;;;;;5.00;3.33;;;;;;;;4922034;28;45359;-65
2024/03/06 00:45:23;;;;;;;;;5.00;5.00;;;;;;;;4932428;28;45323;-65
2024/03/06 00:47:49;;;;;;;;;6.25;4.00;;;;;;;;4926449;28;45455;-65
2024/03/06 00:50:16;;;;;;;;;3.25;3.25;;;;;;;;4926702;28;47081;-65
2024/03/06 00:52:42;;;;;;;;;3.50;3.00;;;;;;;;4921045;28;45404;-65
2024/03/06 00:55:07;;;;;;;;;4.50;2.25;;;;;;;;4928486;28;45449;-65
2024/03/06 00:57:32;;;;;;;;;4.00;2.00;;;;;;;;4920171;28;45462;-65
2024/03/06 00:59:58;;;;;;;;;3.33;3.00;;;;;;;;4907484;28;45362;-65
2024/03/06 01:02:23;;;;;;;;;5.00;3.00;;;;;;;;4923318;28;45749;-65
2024/03/06 01:04:48;;;;;;;;;4.00;4.00;;;;;;;;4931464;28;45611;-65
2024/03/06 01:07:13;;;;;;;;;3.00;3.00;;;;;;;;4916379;28;45528;-65
2024/03/06 01:09:38;;;;;;;;;4.33;3.67;;;;;;;;4933191;28;47471;-65
2024/03/06 01:12:05;;;;;;;;;10.00;7.00;;;;;;;;4919036;28;45366;-65
2024/03/06 01:14:30;;;;;;;;;6.50;4.00;;;;;;;;4924656;28;45495;-65
2024/03/06 01:16:56;;;;;;;;;4.00;4.00;;;;;;;;4922494;28;45983;-65
2024/03/06 01:19:21;;;;;;;;;3.00;3.00;;;;;;;;4927999;28;45480;-65
2024/03/06 01:21:46;;;;;;;;;4.33;4.00;;;;;;;;4922555;28;45476;-65
2024/03/06 01:24:11;;;;;;;;;4.00;3.00;;;;;;;;4929437;28;45693;-65
2024/03/06 01:26:37;;;;;;;;;2.00;2.00;;;;;;;;4926141;28;45720;-65
2024/03/06 01:29:02;;;;;;;;;3.00;3.00;;;;;;;;4911341;28;48086;-65
2024/03/06 01:31:27;;;;;;;;;7.00;4.00;;;;;;;;4927257;28;45453;-65
2024/03/06 01:33:52;;;;;;;;;9.00;4.33;;;;;;;;4932140;28;45331;-65
2024/03/06 01:36:17;;;;;;;;;4.33;3.00;;;;;;;;4927521;28;45454;-65
2024/03/06 01:38:45;;;;;;;;;6.33;5.00;;;;;;;;4916342;28;45417;-65
2024/03/06 01:41:11;;;;;;;;;5.50;5.00;;;;;;;;4908989;28;45455;-65
2024/03/06 01:43:37;;;;;;;;;7.00;7.00;;;;;;;;4919425;28;45772;-65
2024/03/06 01:46:03;;;;;;;;;4.25;4.25;;;;;;;;4908773;28;45354;-65
2024/03/06 01:48:31;;;;;;;;;4.50;4.00;;;;;;;;4931731;28;46343;-65
2024/03/06 01:50:57;;;;;;;;;4.25;4.25;;;;;;;;4913977;28;45699;-65
2024/03/06 01:53:24;;;;;;;;;8.00;7.00;;;;;;;;4931231;28;45398;-65
2024/03/06 01:55:50;;;;;;;;;3.25;3.25;;;;;;;;4926449;28;45364;-65
2024/03/06 01:58:15;;;;;;;;;7.75;4.50;;;;;;;;4924223;28;45331;-65
2024/03/06 02:00:41;;;;;;;;;4.50;4.00;;;;;;;;4919970;28;45450;-65
2024/03/06 02:03:06;;;;;;;;;5.50;3.75;;;;;;;;4927344;28;45458;-65
2024/03/06 02:05:31;;;;;;;;;4.00;4.00;;;;;;;;4920861;28;45484;-65
2024/03/06 02:07:57;;;;;;;;;4.00;3.00;;;;;;;;4924393;28;45442;-65
2024/03/06 02:10:23;;;;;;;;;7.00;7.00;;;;;;;;4921222;28;45579;-65
2024/03/06 02:12:49;;;;;;;;;5.00;5.00;;;;;;;;4925518;28;45474;-65
2024/03/06 02:15:14;;;;;;;;;7.00;7.00;;;;;;;;4930389;28;45604;-65
2024/03/06 02:17:40;;;;;;;;;4.00;4.00;;;;;;;;4921198;28;45801;-65
2024/03/06 02:20:05;;;;;;;;;7.25;7.25;;;;;;;;4931090;28;45391;-65
2024/03/06 02:22:32;;;;;;;;;9.00;7.00;;;;;;;;4928092;28;45542;-65
2024/03/06 02:24:57;;;;;;;;;5.75;5.75;;;;;;;;4928623;28;45533;-65
2024/03/06 02:27:22;;;;;;;;;8.50;4.25;;;;;;;;4931841;28;46028;-65
2024/03/06 02:29:47;;;;;;;;;7.00;4.00;;;;;;;;4929707;28;45439;-65
2024/03/06 02:32:17;;;;;;;;;8.67;5.00;;;;;;;;4921481;28;45379;-65
2024/03/06 02:34:43;;;;;;;;;7.00;5.00;;;;;;;;4930033;28;45335;-65
2024/03/06 02:37:08;;;;;;;;;8.00;8.00;;;;;;;;4934372;28;45647;-65
2024/03/06 02:39:33;;;;;;;;;6.33;4.33;;;;;;;;4917519;28;45578;-65
2024/03/06 02:41:59;;;;;;;;;9.75;7.50;;;;;;;;4923233;28;45500;-65
2024/03/06 02:44:24;;;;;;;;;10.00;8.67;;;;;;;;4911838;28;45474;-65
2024/03/06 02:46:50;;;;;;;;;11.00;11.00;;;;;;;;4933454;28;45632;-65
2024/03/06 02:49:16;;;;;;;;;5.50;4.25;;;;;;;;4929921;28;45475;-65
2024/03/06 02:51:41;;;;;;;;;12.50;11.25;;;;;;;;4917620;28;45556;-65
2024/03/06 02:54:07;;;;;;;;;13.50;11.25;;;;;;;;4929150;28;45550;-65
2024/03/06 02:56:32;;;;;;;;;12.67;11.00;;;;;;;;4928048;28;45631;-65
2024/03/06 02:58:57;;;;;;;;;13.33;11.00;;;;;;;;4921367;28;45477;-64
2024/03/06 03:01:23;;;;;;;;;13.25;10.00;;;;;;;;4923337;28;45548;-65
2024/03/06 03:03:48;;;;;;;;;15.75;10.00;;;;;;;;4927715;28;45363;-65
2024/03/06 03:06:14;;;;;;;;;14.25;13.00;;;;;;;;4921238;28;47428;-65
2024/03/06 03:08:39;;;;;;;;;10.67;9.67;;;;;;;;4922808;28;45525;-65
2024/03/06 03:11:04;;;;;;;;;11.75;10.50;;;;;;;;4916790;28;45823;-65
2024/03/06 03:13:30;;;;;;;;;10.00;10.00;;;;;;;;4912747;28;45439;-65
2024/03/06 03:15:55;;;;;;;;;15.25;12.00;;;;;;;;4934608;28;47187;-64
2024/03/06 03:18:21;;;;;;;;;8.75;8.75;;;;;;;;4921514;28;45422;-65
2024/03/06 03:20:47;;;;;;;;;15.00;14.00;;;;;;;;4933358;28;45475;-65
2024/03/06 03:23:15;;;;;;;;;15.25;13.50;;;;;;;;4923968;28;45479;-65
2024/03/06 03:25:41;;;;;;;;;12.50;11.75;;;;;;;;4927648;28;46456;-65
2024/03/06 03:28:06;;;;;;;;;10.75;10.25;;;;;;;;4925266;28;45459;-65
2024/03/06 03:30:32;;;;;;;;;15.67;15.33;;;;;;;;4915853;28;45372;-65
2024/03/06 03:32:57;;;;;;;;;15.25;11.25;;;;;;;;4922099;28;45546;-65
2024/03/06 03:35:25;;;;;;;;;14.50;14.50;;;;;;;;4933170;28;46333;-65
2024/03/06 03:37:51;;;;;;;;;17.50;15.25;;;;;;;;4925777;28;45498;-65
2024/03/06 03:40:16;;;;;;;;;14.25;12.25;;;;;;;;4928460;28;45644;-65
2024/03/06 03:42:43;;;;;;;;;13.25;11.25;;;;;;;;4923270;28;45462;-65
2024/03/06 03:45:08;;;;;;;;;14.50;9.75;;;;;;;;4933876;28;45561;-65
2024/03/06 03:47:34;;;;;;;;;20.25;14.75;;;;;;;;4928637;28;45409;-65
2024/03/06 03:49:59;;;;;;;;;14.00;11.67;;;;;;;;4930550;28;45431;-64
2024/03/06 03:52:24;;;;;;;;;15.33;12.67;;;;;;;;4927755;28;46440;-65
2024/03/06 03:54:49;;;;;;;;;14.75;14.00;;;;;;;;4933091;28;46371;-65
2024/03/06 03:57:16;;;;;;;;;18.00;15.33;;;;;;;;4921792;28;46068;-65
2024/03/06 03:59:41;;;;;;;;;18.75;17.25;;;;;;;;4913754;28;45379;-65
2024/03/06 04:02:07;;;;;;;;;12.67;10.67;;;;;;;;4905920;28;45569;-65
2024/03/06 04:04:33;;;;;;;;;16.00;12.50;;;;;;;;4933157;28;45551;-65
2024/03/06 04:06:59;;;;;;;;;18.25;15.00;;;;;;;;4916838;28;45426;-65
2024/03/06 04:09:24;;;;;;;;;15.75;15.75;;;;;;;;4913760;28;45349;-65
2024/03/06 04:11:49;;;;;;;;;13.33;8.33;;;;;;;;4929765;28;45583;-65
2024/03/06 04:14:15;;;;;;;;;17.00;15.67;;;;;;;;4923310;28;45426;-65
2024/03/06 04:16:40;;;;;;;;;19.33;14.00;;;;;;;;4927549;28;45390;-65
2024/03/06 04:19:05;;;;;;;;;20.75;14.50;;;;;;;;4925692;28;45412;-65
2024/03/06 04:21:30;;;;;;;;;23.67;20.67;;;;;;;;4930697;28;45315;-65
2024/03/06 04:23:56;;;;;;;;;23.00;18.00;;;;;;;;4930343;28;45483;-65
2024/03/06 04:26:21;;;;;;;;;17.75;14.50;;;;;;;;4929279;28;45345;-65
2024/03/06 04:28:46;;;;;;;;;20.00;17.50;;;;;;;;4931299;28;45294;-64
2024/03/06 04:31:12;;;;;;;;;22.50;17.75;;;;;;;;4927413;28;45581;-65
2024/03/06 04:33:37;;;;;;;;;17.67;17.00;;;;;;;;4932088;28;45243;-65
2024/03/06 04:36:02;;;;;;;;;16.00;15.67;;;;;;;;4931332;28;45592;-65
2024/03/06 04:38:29;;;;;;;;;17.75;16.25;;;;;;;;4920844;28;45366;-65
2024/03/06 04:40:54;;;;;;;;;20.25;20.25;;;;;;;;4933341;28;45510;-64
2024/03/06 04:43:19;;;;;;;;;24.67;22.00;;;;;;;;4928016;28;46604;-65
2024/03/06 04:45:44;;;;;;;;;21.00;20.00;;;;;;;;4924071;28;45545;-65
2024/03/06 04:48:10;;;;;;;;;15.00;13.67;;;;;;;;4929053;28;45840;-65
2024/03/06 04:50:35;;;;;;;;;22.75;21.25;;;;;;;;4930311;28;45742;-65
2024/03/06 04:53:00;;;;;;;;;23.33;18.33;;;;;;;;4929792;28;45425;-65
2024/03/06 04:55:26;;;;;;;;;23.00;20.00;;;;;;;;4930093;28;45509;-65
2024/03/06 04:57:53;;;;;;;;;24.00;22.50;;;;;;;;4920404;28;45724;-65
2024/03/06 05:00:18;;;;;;;;;21.50;19.00;;;;;;;;4931102;28;45446;-65
2024/03/06 05:02:43;;;;;;;;;24.00;19.75;;;;;;;;4924396;28;45469;-65
2024/03/06 05:05:09;;;;;;;;;20.50;19.25;;;;;;;;4927346;28;45467;-65
2024/03/06 05:07:34;;;;;;;;;22.67;22.00;;;;;;;;4920418;28;45485;-65
2024/03/06 05:09:59;;;;;;;;;23.00;19.75;;;;;;;;4933794;28;45480;-65
2024/03/06 05:12:25;;;;;;;;;26.25;20.00;;;;;;;;4927804;28;45313;-65
2024/03/06 05:14:51;;;;;;;;;21.75;20.25;;;;;;;;4933700;28;45411;-65
2024/03/06 05:17:16;;;;;;;;;25.25;21.00;;;;;;;;4923515;28;45438;-65
2024/03/06 05:19:42;;;;;;;;;23.33;22.00;;;;;;;;4924727;28;45567;-65
2024/03/06 05:22:07;;;;;;;;;22.25;20.25;;;;;;;;4924790;28;45926;-65
2024/03/06 05:24:32;;;;;;;;;23.67;22.00;;;;;;;;4927391;28;45320;-65
2024/03/06 05:26:57;;;;;;;;;31.50;28.00;;;;;;;;4911223;28;45380;-65
2024/03/06 05:29:22;;;;;;;;;27.67;24.33;;;;;;;;4926524;28;45656;-65
2024/03/06 05:31:48;;;;;;;;;21.00;21.00;;;;;;;;4927903;28;45962;-65
2024/03/06 05:34:13;;;;;;;;;29.33;26.33;;;;;;;;4926272;28;45464;-65
2024/03/06 05:36:38;;;;;;;;;22.00;21.00;;;;;;;;4924378;28;45296;-65
2024/03/06 05:39:07;;;;;;;;;25.33;23.67;;;;;;;;4909101;28;45428;-65
2024/03/06 05:41:32;;;;;;;;;27.50;23.75;;;;;;;;4922309;28;46986;-65
2024/03/06 05:43:57;;;;;;;;;28.75;23.00;;;;;;;;4924700;28;45449;-65
2024/03/06 05:46:23;;;;;;;;;26.67;23.00;;;;;;;;4908951;28;45595;-65
2024/03/06 05:48:48;;;;;;;;;30.67;29.67;;;;;;;;4926051;28;45454;-65
2024/03/06 05:51:13;;;;;;;;;29.33;25.00;;;;;;;;4922721;28;45495;-65
2024/03/06 05:53:40;;;;;;;;;24.67;23.00;;;;;;;;4920122;28;45542;-64
2024/03/06 05:56:06;;;;;;;;;26.50;23.00;;;;;;;;4926688;28;45366;-64
2024/03/06 05:58:31;;;;;;;;;21.25;21.00;;;;;;;;4917275;28;45504;-65
2024/03/06 06:00:56;;;;;;;;;18.75;17.25;;;;;;;;4929350;28;45347;-65
2024/03/06 06:03:21;;;;;;;;;20.00;18.00;;;;;;;;4931104;28;45288;-64
2024/03/06 06:05:47;;;;;;;;;20.33;15.00;;;;;;;;4924049;28;45455;-65
2024/03/06 06:08:12;;;;;;;;;23.25;16.50;;;;;;;;4930028;28;45572;-64
2024/03/06 06:10:37;;;;;;;;;17.33;16.33;;;;;;;;4903830;28;46951;-64
2024/03/06 06:13:04;;;;;;;;;16.50;15.50;;;;;;;;4920552;28;45197;-65
2024/03/06 06:15:30;;;;;;;;;21.50;20.00;;;;;;;;4934099;28;45495;-65
2024/03/06 06:17:55;;;;;;;;;18.25;17.00;;;;;;;;4923417;28;45436;-64
2024/03/06 06:20:20;;;;;;;;;11.00;10.33;;;;;;;;4914049;28;46089;-65
2024/03/06 06:22:45;;;;;;;;;17.33;14.67;;;;;;;;4925795;28;45389;-64
2024/03/06 06:25:11;;;;;;;;;22.67;20.33;;;;;;;;4912619;28;45666;-66
2024/03/06 06:27:36;;;;;;;;;23.00;21.50;;;;;;;;4920915;28;47112;-65
2024/03/06 06:30:01;;;;;;;;;22.33;21.33;;;;;;;;4930726;28;46256;-64
2024/03/06 06:32:26;;;;;;;;;33.00;28.00;;;;;;;;4929726;28;45552;-65
2024/03/06 06:34:52;;;;;;;;;21.33;21.33;;;;;;;;4930365;28;45395;-65
2024/03/06 06:37:19;;;;;;;;;23.67;22.00;;;;;;;;4918380;28;45504;-64
2024/03/06 06:39:44;;;;;;;;;23.00;22.25;;;;;;;;4923892;28;45977;-65
2024/03/06 06:42:10;;;;;;;;;28.33;23.33;;;;;;;;4924684;28;45529;-65
2024/03/06 06:44:35;;;;;;;;;19.50;19.25;;;;;;;;4936402;28;45600;-65
2024/03/06 06:47:01;;;;;;;;;24.50;20.50;;;;;;;;4933586;28;45304;-65
2024/03/06 06:49:26;;;;;;;;;25.33;23.33;;;;;;;;4930456;28;45540;-65
2024/03/06 06:51:51;;;;;;;;;25.00;21.67;;;;;;;;4928749;28;45464;-65
2024/03/06 06:54:16;;;;;;;;;24.67;24.00;;;;;;;;4929841;28;45373;-65
2024/03/06 06:56:42;;;;;;;;;21.75;20.50;;;;;;;;4933107;28;45490;-65
2024/03/06 06:59:07;;;;;;;;;24.00;20.33;;;;;;;;4920610;28;46421;-65
2024/03/06 07:01:32;;;;;;;;;21.33;17.00;;;;;;;;4925918;28;45417;-65
2024/03/06 07:03:58;;;;;;;;;22.75;21.50;;;;;;;;4923992;28;45279;-65
2024/03/06 07:06:23;;;;;;;;;21.50;18.50;;;;;;;;4931046;28;45390;-64
2024/03/06 07:08:48;;;;;;;;;26.33;22.00;;;;;;;;4932848;28;45489;-65
2024/03/06 07:11:14;;;;;;;;;24.00;20.67;;;;;;;;4932887;28;45611;-65
2024/03/06 07:13:39;;;;;;;;;15.50;14.50;;;;;;;;4931525;28;45474;-65
2024/03/06 07:16:04;;;;;;;;;23.67;22.67;;;;;;;;4929314;28;45691;-64
2024/03/06 07:18:29;;;;;;;;;22.00;20.75;;;;;;;;4922823;28;45703;-64
2024/03/06 07:20:55;;;;;;;;;25.00;20.50;;;;;;;;4925355;28;45778;-65
2024/03/06 07:23:20;;;;;;;;;26.00;20.33;;;;;;;;4924917;28;45283;-65
2024/03/06 07:25:45;;;;;;;;;22.00;19.67;;;;;;;;4920365;28;45586;-65
2024/03/06 07:28:10;;;;;;;;;23.00;19.67;;;;;;;;4926737;28;47159;-65
2024/03/06 07:30:36;;;;;;;;;21.67;18.67;;;;;;;;4922689;28;45443;-65
2024/03/06 07:33:01;;;;;;;;;26.00;23.75;;;;;;;;4923155;28;45426;-65
2024/03/06 07:35:26;;;;;;;;;26.00;22.50;;;;;;;;4932690;28;45378;-65
2024/03/06 07:37:51;;;;;;;;;27.67;24.00;;;;;;;;4927886;28;45578;-65
2024/03/06 07:40:16;;;;;;;;;26.67;22.67;;;;;;;;4925500;28;45546;-65
2024/03/06 07:42:42;;;;;;;;;26.67;22.67;;;;;;;;4927557;28;45480;-65
2024/03/06 07:45:08;;;;;;;;;23.33;20.00;;;;;;;;4913988;28;45443;-65
2024/03/06 07:47:34;;;;;;;;;32.25;24.50;;;;;;;;4924452;28;46306;-65
2024/03/06 07:49:59;;;;;;;;;29.00;24.00;;;;;;;;4905329;28;45433;-65
2024/03/06 07:52:24;;;;;;;;;29.75;28.00;;;;;;;;4919338;28;45306;-65
2024/03/06 07:54:49;;;;;;;;;23.00;20.75;;;;;;;;4931418;28;45664;-65
2024/03/06 07:57:15;;;;;;;;;29.67;26.33;;;;;;;;4925501;28;45517;-65
2024/03/06 07:59:40;;;;;;;;;29.25;26.50;;;;;;;;4922033;28;45301;-66
2024/03/06 08:02:06;;;;;;;;;21.67;21.67;;;;;;;;4921631;28;45275;-65
2024/03/06 08:04:31;;;;;;;;;27.00;20.25;;;;;;;;4920946;28;45526;-65
2024/03/06 08:06:56;;;;;;;;;31.00;23.67;;;;;;;;4917123;28;45351;-65
2024/03/06 08:09:23;;;;;;;;;20.67;20.00;;;;;;;;4916150;28;45888;-65
2024/03/06 08:11:49;;;;;;;;;17.00;15.00;;;;;;;;4919918;28;45491;-65
2024/03/06 08:14:14;;;;;;;;;18.50;16.25;;;;;;;;4921707;28;45367;-65
2024/03/06 08:16:40;;;;;;;;;26.00;22.50;;;;;;;;4935853;28;46140;-64
2024/03/06 08:19:05;;;;;;;;;15.00;15.00;;;;;;;;4923200;28;45416;-65
2024/03/06 08:21:30;;;;;;;;;21.67;18.33;;;;;;;;4924545;28;45331;-65
2024/03/06 08:23:55;;;;;;;;;21.00;20.67;;;;;;;;4920796;28;45359;-64
2024/03/06 08:26:22;;;;;;;;;20.00;18.00;;;;;;;;4918338;28;46387;-64
2024/03/06 08:28:48;;;;;;;;;20.25;18.50;;;;;;;;4927196;28;45454;-64
2024/03/06 08:31:14;;;;;;;;;18.50;18.25;;;;;;;;4934798;28;45406;-65
2024/03/06 08:33:39;;;;;;;;;21.67;18.33;;;;;;;;4915864;28;45754;-67
2024/03/06 08:36:04;;;;;;;;;21.25;18.50;;;;;;;;4931849;28;45307;-66
2024/03/06 08:38:29;;;;;;;;;19.50;19.25;;;;;;;;4919985;28;45455;-66
2024/03/06 08:40:54;;;;;;;;;20.33;17.67;;;;;;;;4927392;28;45582;-66
2024/03/06 08:43:20;;;;;;;;;14.33;12.00;;;;;;;;4922159;28;45415;-64
2024/03/06 08:45:45;;;;;;;;;22.50;18.00;;;;;;;;4923246;28;46191;-64
2024/03/06 08:48:11;;;;;;;;;21.75;19.75;;;;;;;;4922398;28;45541;-64
2024/03/06 08:50:36;;;;;;;;;19.25;18.25;;;;;;;;4931392;28;45392;-64
2024/03/06 08:53:02;;;;;;;;;20.50;18.50;;;;;;;;4931711;28;45519;-64
2024/03/06 08:55:28;;;;;;;;;17.00;15.50;;;;;;;;4934861;28;46073;-64
2024/03/06 08:57:53;;;;;;;;;24.00;18.00;;;;;;;;4929068;28;45341;-64
2024/03/06 09:00:18;;;;;;;;;16.50;16.00;;;;;;;;4925205;28;45303;-64
2024/03/06 09:02:44;;;;;;;;;16.25;15.50;;;;;;;;4924261;28;45591;-63
2024/03/06 09:05:10;;;;;;;;;21.67;18.00;;;;;;;;4924063;28;46295;-65
2024/03/06 09:07:38;;;;;;;;;21.00;19.00;;;;;;;;4923244;28;46698;-62
2024/03/06 09:10:08;;;;;;;;;23.25;18.25;;;;;;;;4920133;28;45596;-62
2024/03/06 09:12:33;;;;;;;;;18.00;18.00;;;;;;;;4929440;28;45647;-62
2024/03/06 09:15:00;;;;;;;;;17.00;14.00;;;;;;;;4927363;28;45515;-63
2024/03/06 09:17:25;;;;;;;;;22.00;18.75;;;;;;;;4934095;28;45538;-65
2024/03/06 09:19:50;;;;;;;;;18.25;16.50;;;;;;;;4929637;28;45460;-64
2024/03/06 09:22:15;;;;;;;;;27.00;23.00;;;;;;;;4932889;28;45701;-63
2024/03/06 09:24:41;;;;;;;;;18.67;18.00;;;;;;;;4923849;28;46202;-63
2024/03/06 09:27:06;;;;;;;;;24.67;20.33;;;;;;;;4930340;28;45427;-63
2024/03/06 09:29:31;;;;;;;;;21.67;20.33;;;;;;;;4920349;28;45501;-63
2024/03/06 09:31:56;;;;;;;;;16.67;16.33;;;;;;;;4919767;28;45638;-63
2024/03/06 09:34:23;;;;;;;;;21.50;19.00;;;;;;;;4928730;28;46113;-63
2024/03/06 09:36:48;;;;;;;;;25.00;22.00;;;;;;;;4930216;28;45391;-63
2024/03/06 09:39:17;;;;;;;;;25.75;21.00;;;;;;;;4922704;28;45522;-63
2024/03/06 09:41:52;;;;;;;;;19.75;16.00;;;;;;;;4923520;28;45537;-63
2024/03/06 09:44:18;;;;;;;;;21.00;17.75;;;;;;;;4936755;28;45387;-63
2024/03/06 09:46:46;;;;;;;;;21.00;17.25;;;;;;;;4930890;28;45364;-63
2024/03/06 09:49:14;;;;;;;;;20.75;16.75;;;;;;;;4922320;28;45521;-63
2024/03/06 09:51:41;;;;;;;;;22.75;20.75;;;;;;;;4916897;28;45582;-63
2024/03/06 09:54:07;;;;;;;;;22.75;20.00;;;;;;;;4920045;28;46064;-63
2024/03/06 09:56:33;;;;;;;;;20.75;19.25;;;;;;;;4930433;28;45476;-63
2024/03/06 09:58:58;;;;;;;;;18.50;18.50;;;;;;;;4920181;28;45505;-63
2024/03/06 10:01:24;;;;;;;;;18.67;17.00;;;;;;;;4917216;28;45415;-63
2024/03/06 10:03:50;;;;;;;;;21.75;18.00;;;;;;;;4914599;28;46060;-63
2024/03/06 10:06:15;;;;;;;;;21.25;18.75;;;;;;;;4920205;28;45409;-63
2024/03/06 10:08:46;;;;;;;;;14.00;12.67;;;;;;;;4925474;28;45454;-63
2024/03/06 10:11:11;;;;;;;;;19.75;15.25;;;;;;;;4921663;28;45516;-63
2024/03/06 10:13:36;;;;;;;;;14.50;14.50;;;;;;;;4926167;28;46349;-63
2024/03/06 10:16:08;;;;;;;;;13.67;11.33;;;;;;;;4922765;28;45447;-63
2024/03/06 10:18:33;;;;;;;;;12.75;10.50;;;;;;;;4926931;28;45543;-63
2024/03/06 10:20:59;;;;;;;;;12.33;12.00;;;;;;;;4925128;28;45786;-64
2024/03/06 10:23:25;;;;;;;;;11.00;10.50;;;;;;;;4922124;28;46717;-64
2024/03/06 10:25:52;;;;;;;;;16.00;13.75;;;;;;;;4903164;28;45676;-64
2024/03/06 10:28:17;;;;;;;;;17.50;13.50;;;;;;;;4917188;28;45584;-64
2024/03/06 10:30:43;;;;;;;;;15.00;14.00;;;;;;;;4918247;28;45510;-64
2024/03/06 10:33:08;;;;;;;;;10.25;10.25;;;;;;;;4923202;28;46212;-64
2024/03/06 10:35:34;;;;;;;;;15.25;15.00;;;;;;;;4922469;28;45438;-64
2024/03/06 10:38:00;;;;;;;;;17.50;14.50;;;;;;;;4920075;28;45854;-63
2024/03/06 10:40:29;;;;;;;;;14.25;10.25;;;;;;;;4920897;28;45524;-63
2024/03/06 10:42:54;;;;;;;;;14.50;14.50;;;;;;;;4927043;28;46158;-63
2024/03/06 10:45:22;;;;;;;;;16.00;12.25;;;;;;;;4921639;28;45667;-63
2024/03/06 10:47:48;;;;;;;;;11.50;11.50;;;;;;;;4930258;28;45343;-63
2024/03/06 10:50:14;;;;;;;;;17.50;15.75;;;;;;;;4920685;28;45737;-63
2024/03/06 10:52:39;;;;;;;;;18.75;14.25;;;;;;;;4925637;28;46215;-63
2024/03/06 10:55:05;;;;;;;;;18.00;15.00;;;;;;;;4923244;28;45523;-63
2024/03/06 10:57:32;;;;;;;;;20.50;17.00;;;;;;;;4926089;28;45518;-63
2024/03/06 11:00:01;;;;;;;;;19.75;17.50;;;;;;;;4927121;28;45581;-63
2024/03/06 11:02:27;;;;;;;;;21.25;19.00;;;;;;;;4919325;28;46205;-64
2024/03/06 11:04:53;;;;;;;;;22.25;18.25;;;;;;;;4924149;28;45982;-64
2024/03/06 11:07:18;;;;;;;;;21.00;15.00;;;;;;;;4922033;28;45440;-64
2024/03/06 11:09:43;;;;;;;;;19.75;18.25;;;;;;;;4921678;28;45547;-64
2024/03/06 11:12:08;;;;;;;;;17.00;16.00;;;;;;;;4928203;28;45474;-64
2024/03/06 11:14:40;;;;;;;;;16.67;15.33;;;;;;;;4920810;28;45997;-64
2024/03/06 11:17:08;;;;;;;;;15.25;13.00;;;;;;;;4931329;28;45413;-64
2024/03/06 11:19:52;;;;;;;;;18.00;15.75;;;;;;;;4929976;28;45399;-64
2024/03/06 11:22:17;;;;;;;;;12.25;9.25;;;;;;;;4916976;28;45420;-64
2024/03/06 11:24:42;;;;;;;;;10.67;10.00;;;;;;;;4904893;28;45561;-64
2024/03/06 11:27:08;;;;;;;;;18.67;13.33;;;;;;;;4923616;28;45653;-64
2024/03/06 11:29:52;;;;;;;;;5.00;4.50;;;;;;;;4921357;28;45477;-64
2024/03/06 11:32:17;;;;;;;;;16.00;15.00;;;;;;;;4916875;28;46343;-64
2024/03/06 11:34:42;;;;;;;;;13.00;12.00;;;;;;;;4928081;28;45505;-64
2024/03/06 11:37:09;;;;;;;;;8.67;8.67;;;;;;;;4935169;28;45564;-64
2024/03/06 11:39:36;;;;;;;;;6.00;6.00;;;;;;;;4921391;28;45443;-64
2024/03/06 11:42:02;;;;;;;;;5.25;5.25;;;;;;;;4923987;28;46294;-64
2024/03/06 11:44:29;;;;;;;;;9.50;8.25;;;;;;;;4921491;28;45454;-64
2024/03/06 11:46:54;;;;;;;;;12.00;9.25;;;;;;;;4920282;28;45482;-64
2024/03/06 11:49:26;;;;;;;;;9.25;9.00;;;;;;;;4927662;28;45420;-64
2024/03/06 11:51:52;;;;;;;;;6.00;6.00;;;;;;;;4918770;28;45380;-64
2024/03/06 11:54:24;;;;;;;;;10.00;10.00;;;;;;;;4919808;28;45482;-64
2024/03/06 11:56:56;;;;;;;;;17.50;13.75;;;;;;;;4921113;28;45473;-64
2024/03/06 11:59:39;;;;;;;;;18.00;16.00;;;;;;;;4921600;28;45617;-64
2024/03/06 12:02:05;;;;;;;;;22.50;20.75;;;;;;;;4910627;28;45605;-64
2024/03/06 12:04:31;;;;;;;;;24.25;21.50;;;;;;;;4920143;28;46065;-65
2024/03/06 12:06:57;;;;;;;;;26.50;21.25;;;;;;;;4920613;28;45392;-64
2024/03/06 12:09:22;;;;;;;;;19.75;16.75;;;;;;;;4924195;28;45750;-64
2024/03/06 12:11:48;;;;;;;;;21.33;21.00;;;;;;;;4924512;28;45989;-64
2024/03/06 12:14:17;;;;;;;;;17.67;15.33;;;;;;;;4926088;28;45493;-64
2024/03/06 12:16:43;;;;;;;;;18.75;17.25;;;;;;;;4918486;28;46132;-64
2024/03/06 12:19:09;;;;;;;;;17.50;16.25;;;;;;;;4921456;28;45347;-64
2024/03/06 12:21:34;;;;;;;;;21.00;18.00;;;;;;;;4920138;28;46741;-64
2024/03/06 12:24:06;;;;;;;;;17.33;16.00;;;;;;;;4923472;28;45419;-64
2024/03/06 12:26:31;;;;;;;;;19.75;16.75;;;;;;;;4924229;28;45379;-64
2024/03/06 12:29:07;;;;;;;;;21.75;16.00;;;;;;;;4918347;28;45659;-64
2024/03/06 12:31:34;;;;;;;;;21.00;20.00;;;;;;;;4923989;28;46416;-64
2024/03/06 12:33:59;;;;;;;;;21.00;19.50;;;;;;;;4921819;28;45656;-64
2024/03/06 12:36:25;;;;;;;;;26.25;22.25;;;;;;;;4927081;28;45521;-64
2024/03/06 12:38:54;;;;;;;;;24.75;21.50;;;;;;;;4918115;28;45613;-64
2024/03/06 12:41:19;;;;;;;;;2.00;0.00;;;;;;;;4907164;28;46925;-64
2024/03/06 12:43:45;;;;;;;;;16.33;14.33;;;;;;;;4923898;28;45625;-64
2024/03/06 12:46:10;;;;;;;;;27.67;21.33;;;;;;;;4922529;28;45781;-64
2024/03/06 12:48:35;;;;;;;;;24.00;19.67;;;;;;;;4929239;28;45366;-64
2024/03/06 12:51:04;;;;;;;;;20.00;18.00;;;;;;;;4913107;28;46248;-64
2024/03/06 12:53:30;;;;;;;;;28.00;24.00;;;;;;;;4918691;28;45734;-65
2024/03/06 12:55:55;;;;;;;;;29.00;25.25;;;;;;;;4918661;28;45551;-65
2024/03/06 12:58:21;;;;;;;;;24.00;20.67;;;;;;;;4916346;28;45615;-65
2024/03/06 13:00:46;;;;;;;;;30.33;24.67;;;;;;;;4919441;28;46433;-65
2024/03/06 13:03:11;;;;;;;;;23.00;20.67;;;;;;;;4916513;28;45467;-64
2024/03/06 13:05:36;;;;;;;;;24.00;19.00;;;;;;;;4911813;28;45518;-65
2024/03/06 13:08:02;;;;;;;;;21.25;18.50;;;;;;;;4920559;28;45587;-65
2024/03/06 13:10:27;;;;;;;;;19.75;19.50;;;;;;;;4918654;28;46495;-65
2024/03/06 13:12:52;;;;;;;;;19.00;18.75;;;;;;;;4910983;28;45581;-65
2024/03/06 13:15:18;;;;;;;;;20.00;17.33;;;;;;;;4926830;28;45601;-65
2024/03/06 13:17:43;;;;;;;;;17.00;16.75;;;;;;;;4925252;28;45281;-65
2024/03/06 13:20:14;;;;;;;;;18.00;14.67;;;;;;;;4922111;28;46671;-65
2024/03/06 13:22:39;;;;;;;;;21.75;20.50;;;;;;;;4926288;28;47300;-65
2024/03/06 13:25:04;;;;;;;;;20.25;19.50;;;;;;;;4922999;28;45620;-65
2024/03/06 13:27:30;;;;;;;;;27.75;23.25;;;;;;;;4924177;28;45333;-64
2024/03/06 13:29:55;;;;;;;;;21.00;21.00;;;;;;;;4919011;28;45366;-65
2024/03/06 13:32:20;;;;;;;;;17.67;15.00;;;;;;;;4919702;28;45324;-65
2024/03/06 13:34:45;;;;;;;;;24.33;17.33;;;;;;;;4922835;28;45676;-65
2024/03/06 13:37:11;;;;;;;;;19.00;16.00;;;;;;;;4919058;28;45733;-64
2024/03/06 13:39:36;;;;;;;;;23.25;19.75;;;;;;;;4909610;28;47036;-64
2024/03/06 13:42:01;;;;;;;;;25.25;23.00;;;;;;;;4914758;28;45380;-64
2024/03/06 13:44:27;;;;;;;;;24.50;20.75;;;;;;;;4917041;28;45467;-66
2024/03/06 13:46:52;;;;;;;;;20.33;17.00;;;;;;;;4919284;28;45514;-66
2024/03/06 13:49:36;;;;;;;;;22.75;20.75;;;;;;;;4921408;28;45925;-67
2024/03/06 13:52:01;;;;;;;;;19.75;19.50;;;;;;;;4919793;28;45576;-62
2024/03/06 13:54:27;;;;;;;;;23.75;22.25;;;;;;;;4921588;28;45543;-63
2024/03/06 13:56:54;;;;;;;;;23.67;21.33;;;;;;;;4913611;28;45530;-63
2024/03/06 13:59:19;;;;;;;;;23.75;19.25;;;;;;;;4924187;28;46138;-64
2024/03/06 14:01:44;;;;;;;;;19.67;19.33;;;;;;;;4929492;28;45554;-63
2024/03/06 14:04:09;;;;;;;;;23.00;20.00;;;;;;;;4928927;28;45329;-63
2024/03/06 14:06:34;;;;;;;;;20.00;20.00;;;;;;;;4922424;28;45576;-64
2024/03/06 14:08:59;;;;;;;;;21.00;20.33;;;;;;;;4920507;28;46327;-63
2024/03/06 14:11:25;;;;;;;;;19.67;18.00;;;;;;;;4920925;28;45557;-63
2024/03/06 14:13:50;;;;;;;;;16.00;14.50;;;;;;;;4919913;28;45578;-64
2024/03/06 14:16:16;;;;;;;;;19.67;16.33;;;;;;;;4920800;28;45435;-63